San Rafael, Argentina
Current Conditions -  °F | °C
As of 9:00 AM on Saturday 22 Nov 2014 (Local Time) from SAME Reporting Station
Clear Clear  
Wind Chill: 66°   Ceiling: Unl
Heat Index: 66°   Visibility: 6mi
Dew Point: 43°   Wind: 2mph
Humidity: 43%   Direction: 140°SE
Pressure: 30"   Gusts: NA
Location:  34.62°S, 68.34°W
Report Text: SAME 221200Z 14002KT CAVOK 19/06 Q1016
Loading
Personal Weather Stations






























Interactive Weather Map New forecast layout! Learn more

10-Day Weather Forecast

Advertisements
Track Severe Weather on mobile